sensor_id;sensor_type;location;lat;lon;timestamp;P1;durP1;ratioP1;P2;durP2;ratioP2
14592;SDS011;7383;52.354;9.756;2024-02-23T00:00:58;1.92;;;0.80;;
14592;SDS011;7383;52.354;9.756;2024-02-23T00:03:25;1.65;;;0.75;;
14592;SDS011;7383;52.354;9.756;2024-02-23T00:05:51;1.15;;;0.70;;
14592;SDS011;7383;52.354;9.756;2024-02-23T00:08:18;1.05;;;0.60;;
14592;SDS011;7383;52.354;9.756;2024-02-23T00:10:45;1.52;;;0.73;;
14592;SDS011;7383;52.354;9.756;2024-02-23T00:13:11;1.75;;;1.08;;
14592;SDS011;7383;52.354;9.756;2024-02-23T00:15:37;1.40;;;0.93;;
14592;SDS011;7383;52.354;9.756;2024-02-23T00:18:04;2.25;;;0.93;;
14592;SDS011;7383;52.354;9.756;2024-02-23T00:20:31;0.93;;;0.50;;
14592;SDS011;7383;52.354;9.756;2024-02-23T00:22:58;1.10;;;0.95;;
14592;SDS011;7383;52.354;9.756;2024-02-23T00:25:25;1.63;;;0.60;;
14592;SDS011;7383;52.354;9.756;2024-02-23T00:27:52;0.88;;;0.70;;
14592;SDS011;7383;52.354;9.756;2024-02-23T00:30:18;0.95;;;0.60;;
14592;SDS011;7383;52.354;9.756;2024-02-23T00:32:45;1.30;;;0.70;;
14592;SDS011;7383;52.354;9.756;2024-02-23T00:35:11;1.88;;;0.60;;
14592;SDS011;7383;52.354;9.756;2024-02-23T00:37:37;1.33;;;0.70;;
14592;SDS011;7383;52.354;9.756;2024-02-23T00:40:04;1.38;;;0.47;;
14592;SDS011;7383;52.354;9.756;2024-02-23T00:42:32;1.35;;;0.70;;
14592;SDS011;7383;52.354;9.756;2024-02-23T00:44:58;1.40;;;0.70;;
14592;SDS011;7383;52.354;9.756;2024-02-23T00:47:24;1.15;;;0.80;;
14592;SDS011;7383;52.354;9.756;2024-02-23T00:49:50;0.93;;;0.50;;
14592;SDS011;7383;52.354;9.756;2024-02-23T00:52:17;0.73;;;0.50;;
14592;SDS011;7383;52.354;9.756;2024-02-23T00:54:43;1.00;;;0.65;;
14592;SDS011;7383;52.354;9.756;2024-02-23T00:57:10;1.48;;;0.50;;
14592;SDS011;7383;52.354;9.756;2024-02-23T00:59:40;1.30;;;0.60;;
14592;SDS011;7383;52.354;9.756;2024-02-23T01:02:07;1.15;;;0.68;;
14592;SDS011;7383;52.354;9.756;2024-02-23T01:04:33;0.75;;;0.50;;
14592;SDS011;7383;52.354;9.756;2024-02-23T01:07:00;0.80;;;0.60;;
14592;SDS011;7383;52.354;9.756;2024-02-23T01:09:26;0.88;;;0.50;;
14592;SDS011;7383;52.354;9.756;2024-02-23T01:11:52;0.98;;;0.43;;
14592;SDS011;7383;52.354;9.756;2024-02-23T01:14:18;1.17;;;0.35;;
14592;SDS011;7383;52.354;9.756;2024-02-23T01:16:46;0.43;;;0.43;;
14592;SDS011;7383;52.354;9.756;2024-02-23T01:19:12;0.43;;;0.40;;
14592;SDS011;7383;52.354;9.756;2024-02-23T01:21:40;0.77;;;0.43;;
14592;SDS011;7383;52.354;9.756;2024-02-23T01:24:07;0.40;;;0.35;;
14592;SDS011;7383;52.354;9.756;2024-02-23T01:26:33;0.28;;;0.25;;
14592;SDS011;7383;52.354;9.756;2024-02-23T01:28:59;0.40;;;0.30;;
14592;SDS011;7383;52.354;9.756;2024-02-23T01:31:25;0.90;;;0.40;;
14592;SDS011;7383;52.354;9.756;2024-02-23T01:33:53;0.20;;;0.20;;
14592;SDS011;7383;52.354;9.756;2024-02-23T01:36:19;0.20;;;0.15;;
14592;SDS011;7383;52.354;9.756;2024-02-23T01:38:46;0.63;;;0.13;;
14592;SDS011;7383;52.354;9.756;2024-02-23T01:41:12;0.30;;;0.22;;
14592;SDS011;7383;52.354;9.756;2024-02-23T01:43:38;0.20;;;0.20;;
14592;SDS011;7383;52.354;9.756;2024-02-23T01:46:04;0.60;;;0.25;;
14592;SDS011;7383;52.354;9.756;2024-02-23T01:48:31;0.15;;;0.15;;
14592;SDS011;7383;52.354;9.756;2024-02-23T01:50:59;0.20;;;0.10;;
14592;SDS011;7383;52.354;9.756;2024-02-23T01:53:26;0.35;;;0.20;;
14592;SDS011;7383;52.354;9.756;2024-02-23T01:55:53;0.10;;;0.10;;
14592;SDS011;7383;52.354;9.756;2024-02-23T01:58:20;0.10;;;0.10;;
14592;SDS011;7383;52.354;9.756;2024-02-23T02:00:46;0.10;;;0.10;;
14592;SDS011;7383;52.354;9.756;2024-02-23T02:03:14;0.32;;;0.28;;
14592;SDS011;7383;52.354;9.756;2024-02-23T02:05:40;0.32;;;0.28;;
14592;SDS011;7383;52.354;9.756;2024-02-23T02:08:08;0.15;;;0.05;;
14592;SDS011;7383;52.354;9.756;2024-02-23T02:10:34;0.10;;;0.10;;
14592;SDS011;7383;52.354;9.756;2024-02-23T02:13:04;0.00;;;0.00;;
14592;SDS011;7383;52.354;9.756;2024-02-23T02:15:30;0.00;;;0.00;;
14592;SDS011;7383;52.354;9.756;2024-02-23T02:17:56;0.00;;;0.00;;
14592;SDS011;7383;52.354;9.756;2024-02-23T02:20:23;0.00;;;0.00;;
14592;SDS011;7383;52.354;9.756;2024-02-23T02:22:50;0.00;;;0.00;;
14592;SDS011;7383;52.354;9.756;2024-02-23T02:25:18;0.10;;;0.10;;
14592;SDS011;7383;52.354;9.756;2024-02-23T02:27:44;0.20;;;0.03;;
14592;SDS011;7383;52.354;9.756;2024-02-23T02:30:11;0.00;;;0.00;;
14592;SDS011;7383;52.354;9.756;2024-02-23T02:32:37;0.05;;;0.03;;
14592;SDS011;7383;52.354;9.756;2024-02-23T02:35:04;0.00;;;0.00;;
14592;SDS011;7383;52.354;9.756;2024-02-23T02:37:30;0.10;;;0.10;;
14592;SDS011;7383;52.354;9.756;2024-02-23T02:39:56;0.10;;;0.10;;
14592;SDS011;7383;52.354;9.756;2024-02-23T02:42:24;0.00;;;0.00;;
14592;SDS011;7383;52.354;9.756;2024-02-23T02:44:50;0.00;;;0.00;;
14592;SDS011;7383;52.354;9.756;2024-02-23T02:47:17;0.10;;;0.08;;
14592;SDS011;7383;52.354;9.756;2024-02-23T02:49:43;0.08;;;0.08;;
14592;SDS011;7383;52.354;9.756;2024-02-23T02:52:09;0.30;;;0.10;;
14592;SDS011;7383;52.354;9.756;2024-02-23T02:54:35;0.25;;;0.10;;
14592;SDS011;7383;52.354;9.756;2024-02-23T02:57:02;0.10;;;0.10;;
14592;SDS011;7383;52.354;9.756;2024-02-23T02:59:33;0.25;;;0.25;;
14592;SDS011;7383;52.354;9.756;2024-02-23T03:01:59;0.28;;;0.20;;
14592;SDS011;7383;52.354;9.756;2024-02-23T03:04:25;0.40;;;0.30;;
14592;SDS011;7383;52.354;9.756;2024-02-23T03:06:52;0.70;;;0.30;;
14592;SDS011;7383;52.354;9.756;2024-02-23T03:09:18;0.20;;;0.20;;
14592;SDS011;7383;52.354;9.756;2024-02-23T03:11:44;0.38;;;0.38;;
14592;SDS011;7383;52.354;9.756;2024-02-23T03:14:10;0.30;;;0.30;;
14592;SDS011;7383;52.354;9.756;2024-02-23T03:16:37;1.17;;;0.47;;
14592;SDS011;7383;52.354;9.756;2024-02-23T03:19:03;0.30;;;0.30;;
14592;SDS011;7383;52.354;9.756;2024-02-23T03:21:30;0.30;;;0.30;;
14592;SDS011;7383;52.354;9.756;2024-02-23T03:23:56;0.45;;;0.30;;
14592;SDS011;7383;52.354;9.756;2024-02-23T03:26:22;0.75;;;0.47;;
14592;SDS011;7383;52.354;9.756;2024-02-23T03:28:49;0.32;;;0.30;;
14592;SDS011;7383;52.354;9.756;2024-02-23T03:31:15;0.40;;;0.40;;
14592;SDS011;7383;52.354;9.756;2024-02-23T03:33:43;0.40;;;0.40;;
14592;SDS011;7383;52.354;9.756;2024-02-23T03:36:09;0.43;;;0.40;;
14592;SDS011;7383;52.354;9.756;2024-02-23T03:38:36;0.68;;;0.40;;
14592;SDS011;7383;52.354;9.756;2024-02-23T03:41:02;0.73;;;0.40;;
14592;SDS011;7383;52.354;9.756;2024-02-23T03:43:28;1.20;;;0.50;;
14592;SDS011;7383;52.354;9.756;2024-02-23T03:45:54;1.02;;;0.55;;
14592;SDS011;7383;52.354;9.756;2024-02-23T03:48:21;0.40;;;0.40;;
14592;SDS011;7383;52.354;9.756;2024-02-23T03:50:48;1.48;;;0.60;;
14592;SDS011;7383;52.354;9.756;2024-02-23T03:53:14;0.65;;;0.50;;
14592;SDS011;7383;52.354;9.756;2024-02-23T03:55:41;0.88;;;0.50;;
14592;SDS011;7383;52.354;9.756;2024-02-23T03:58:07;0.68;;;0.65;;
14592;SDS011;7383;52.354;9.756;2024-02-23T04:00:34;0.73;;;0.73;;
14592;SDS011;7383;52.354;9.756;2024-02-23T04:03:00;0.70;;;0.57;;
14592;SDS011;7383;52.354;9.756;2024-02-23T04:05:26;1.30;;;0.52;;
14592;SDS011;7383;52.354;9.756;2024-02-23T04:07:54;0.60;;;0.60;;
14592;SDS011;7383;52.354;9.756;2024-02-23T04:10:20;0.55;;;0.50;;
14592;SDS011;7383;52.354;9.756;2024-02-23T04:12:46;0.57;;;0.57;;
14592;SDS011;7383;52.354;9.756;2024-02-23T04:15:12;1.20;;;0.80;;
14592;SDS011;7383;52.354;9.756;2024-02-23T04:17:39;0.68;;;0.68;;
14592;SDS011;7383;52.354;9.756;2024-02-23T04:20:06;1.05;;;0.60;;
14592;SDS011;7383;52.354;9.756;2024-02-23T04:22:31;1.42;;;0.80;;
14592;SDS011;7383;52.354;9.756;2024-02-23T04:24:59;1.55;;;1.10;;
14592;SDS011;7383;52.354;9.756;2024-02-23T04:27:25;0.88;;;0.77;;
14592;SDS011;7383;52.354;9.756;2024-02-23T04:29:51;0.68;;;0.68;;
14592;SDS011;7383;52.354;9.756;2024-02-23T04:32:18;0.88;;;0.75;;
14592;SDS011;7383;52.354;9.756;2024-02-23T04:34:44;0.95;;;0.85;;
14592;SDS011;7383;52.354;9.756;2024-02-23T04:37:10;2.35;;;1.00;;
14592;SDS011;7383;52.354;9.756;2024-02-23T04:39:36;0.93;;;0.80;;
14592;SDS011;7383;52.354;9.756;2024-02-23T04:42:08;0.90;;;0.77;;
14592;SDS011;7383;52.354;9.756;2024-02-23T04:44:34;0.85;;;0.77;;
14592;SDS011;7383;52.354;9.756;2024-02-23T04:47:00;0.95;;;0.52;;
14592;SDS011;7383;52.354;9.756;2024-02-23T04:49:27;2.30;;;0.73;;
14592;SDS011;7383;52.354;9.756;2024-02-23T04:51:53;0.85;;;0.60;;
14592;SDS011;7383;52.354;9.756;2024-02-23T04:54:20;0.63;;;0.63;;
14592;SDS011;7383;52.354;9.756;2024-02-23T04:56:46;1.73;;;0.65;;
14592;SDS011;7383;52.354;9.756;2024-02-23T04:59:14;0.60;;;0.60;;
14592;SDS011;7383;52.354;9.756;2024-02-23T05:01:40;1.15;;;0.63;;
14592;SDS011;7383;52.354;9.756;2024-02-23T05:04:07;1.20;;;0.63;;
14592;SDS011;7383;52.354;9.756;2024-02-23T05:06:40;1.27;;;0.70;;
14592;SDS011;7383;52.354;9.756;2024-02-23T05:09:08;0.68;;;0.68;;
14592;SDS011;7383;52.354;9.756;2024-02-23T05:11:37;0.55;;;0.50;;
14592;SDS011;7383;52.354;9.756;2024-02-23T05:14:04;0.75;;;0.57;;
14592;SDS011;7383;52.354;9.756;2024-02-23T05:16:32;1.20;;;0.50;;
14592;SDS011;7383;52.354;9.756;2024-02-23T05:18:58;0.50;;;0.50;;
14592;SDS011;7383;52.354;9.756;2024-02-23T05:21:25;0.52;;;0.52;;
14592;SDS011;7383;52.354;9.756;2024-02-23T05:23:51;0.85;;;0.80;;
14592;SDS011;7383;52.354;9.756;2024-02-23T05:26:18;1.30;;;0.75;;
14592;SDS011;7383;52.354;9.756;2024-02-23T05:28:45;1.90;;;0.77;;
14592;SDS011;7383;52.354;9.756;2024-02-23T05:31:12;0.68;;;0.68;;
14592;SDS011;7383;52.354;9.756;2024-02-23T05:33:40;0.82;;;0.65;;
14592;SDS011;7383;52.354;9.756;2024-02-23T05:36:07;0.95;;;0.77;;
14592;SDS011;7383;52.354;9.756;2024-02-23T05:38:33;0.90;;;0.80;;
14592;SDS011;7383;52.354;9.756;2024-02-23T05:41:00;1.00;;;0.82;;
14592;SDS011;7383;52.354;9.756;2024-02-23T05:43:27;0.60;;;0.47;;
14592;SDS011;7383;52.354;9.756;2024-02-23T05:45:56;0.73;;;0.70;;
14592;SDS011;7383;52.354;9.756;2024-02-23T05:48:23;0.60;;;0.60;;
14592;SDS011;7383;52.354;9.756;2024-02-23T05:50:55;1.00;;;0.88;;
14592;SDS011;7383;52.354;9.756;2024-02-23T05:53:21;0.85;;;0.50;;
14592;SDS011;7383;52.354;9.756;2024-02-23T05:55:50;1.33;;;0.95;;
14592;SDS011;7383;52.354;9.756;2024-02-23T05:58:16;1.33;;;0.88;;
14592;SDS011;7383;52.354;9.756;2024-02-23T06:00:46;0.85;;;0.63;;
14592;SDS011;7383;52.354;9.756;2024-02-23T06:03:16;1.33;;;0.68;;
14592;SDS011;7383;52.354;9.756;2024-02-23T06:05:43;0.60;;;0.50;;
14592;SDS011;7383;52.354;9.756;2024-02-23T06:08:15;1.15;;;0.60;;
14592;SDS011;7383;52.354;9.756;2024-02-23T06:10:41;1.05;;;0.77;;
14592;SDS011;7383;52.354;9.756;2024-02-23T06:13:08;1.27;;;0.68;;
14592;SDS011;7383;52.354;9.756;2024-02-23T06:15:34;1.60;;;0.88;;
14592;SDS011;7383;52.354;9.756;2024-02-23T06:18:00;1.98;;;1.33;;
14592;SDS011;7383;52.354;9.756;2024-02-23T06:20:27;0.77;;;0.70;;
14592;SDS011;7383;52.354;9.756;2024-02-23T06:22:53;2.60;;;0.93;;
14592;SDS011;7383;52.354;9.756;2024-02-23T06:25:21;4.43;;;1.20;;
14592;SDS011;7383;52.354;9.756;2024-02-23T06:27:47;1.08;;;0.75;;
14592;SDS011;7383;52.354;9.756;2024-02-23T06:30:13;1.60;;;0.77;;
14592;SDS011;7383;52.354;9.756;2024-02-23T06:32:39;0.60;;;0.60;;
14592;SDS011;7383;52.354;9.756;2024-02-23T06:35:06;1.25;;;0.73;;
14592;SDS011;7383;52.354;9.756;2024-02-23T06:37:33;1.05;;;0.75;;
14592;SDS011;7383;52.354;9.756;2024-02-23T06:40:00;0.52;;;0.52;;
14592;SDS011;7383;52.354;9.756;2024-02-23T06:42:27;2.47;;;1.23;;
14592;SDS011;7383;52.354;9.756;2024-02-23T06:44:55;2.97;;;1.02;;
14592;SDS011;7383;52.354;9.756;2024-02-23T06:47:22;0.95;;;0.90;;
14592;SDS011;7383;52.354;9.756;2024-02-23T06:49:48;1.40;;;0.85;;
14592;SDS011;7383;52.354;9.756;2024-02-23T06:52:14;2.63;;;1.00;;
14592;SDS011;7383;52.354;9.756;2024-02-23T06:54:41;1.67;;;0.82;;
14592;SDS011;7383;52.354;9.756;2024-02-23T06:57:07;2.90;;;0.88;;
14592;SDS011;7383;52.354;9.756;2024-02-23T06:59:35;2.17;;;1.20;;
14592;SDS011;7383;52.354;9.756;2024-02-23T07:02:01;2.22;;;0.63;;
14592;SDS011;7383;52.354;9.756;2024-02-23T07:04:29;1.48;;;0.80;;
14592;SDS011;7383;52.354;9.756;2024-02-23T07:06:55;1.48;;;0.80;;
14592;SDS011;7383;52.354;9.756;2024-02-23T07:09:21;2.03;;;1.00;;
14592;SDS011;7383;52.354;9.756;2024-02-23T07:11:48;1.55;;;0.90;;
14592;SDS011;7383;52.354;9.756;2024-02-23T07:14:14;1.45;;;0.80;;
14592;SDS011;7383;52.354;9.756;2024-02-23T07:16:43;0.75;;;0.68;;
14592;SDS011;7383;52.354;9.756;2024-02-23T07:19:09;0.93;;;0.80;;
14592;SDS011;7383;52.354;9.756;2024-02-23T07:21:37;1.00;;;0.70;;
14592;SDS011;7383;52.354;9.756;2024-02-23T07:24:04;1.17;;;0.70;;
14592;SDS011;7383;52.354;9.756;2024-02-23T07:26:30;1.00;;;0.60;;
14592;SDS011;7383;52.354;9.756;2024-02-23T07:28:57;1.25;;;0.90;;
14592;SDS011;7383;52.354;9.756;2024-02-23T07:31:23;1.17;;;0.75;;
14592;SDS011;7383;52.354;9.756;2024-02-23T07:33:51;1.70;;;0.95;;
14592;SDS011;7383;52.354;9.756;2024-02-23T07:36:17;0.80;;;0.60;;
14592;SDS011;7383;52.354;9.756;2024-02-23T07:38:45;1.02;;;0.68;;
14592;SDS011;7383;52.354;9.756;2024-02-23T07:41:12;2.00;;;0.98;;
14592;SDS011;7383;52.354;9.756;2024-02-23T07:43:39;1.83;;;0.80;;
14592;SDS011;7383;52.354;9.756;2024-02-23T07:46:05;0.77;;;0.60;;
14592;SDS011;7383;52.354;9.756;2024-02-23T07:48:33;0.68;;;0.60;;
14592;SDS011;7383;52.354;9.756;2024-02-23T07:51:01;1.08;;;0.68;;
14592;SDS011;7383;52.354;9.756;2024-02-23T07:53:28;1.25;;;0.80;;
14592;SDS011;7383;52.354;9.756;2024-02-23T07:55:54;1.60;;;0.90;;
14592;SDS011;7383;52.354;9.756;2024-02-23T07:58:24;1.70;;;0.60;;
14592;SDS011;7383;52.354;9.756;2024-02-23T08:00:51;0.68;;;0.40;;
14592;SDS011;7383;52.354;9.756;2024-02-23T08:03:17;0.80;;;0.52;;
14592;SDS011;7383;52.354;9.756;2024-02-23T08:05:44;1.27;;;0.80;;
14592;SDS011;7383;52.354;9.756;2024-02-23T08:08:14;0.75;;;0.50;;
14592;SDS011;7383;52.354;9.756;2024-02-23T08:10:41;1.23;;;0.63;;
14592;SDS011;7383;52.354;9.756;2024-02-23T08:13:07;2.05;;;0.90;;
14592;SDS011;7383;52.354;9.756;2024-02-23T08:15:35;1.75;;;0.70;;
14592;SDS011;7383;52.354;9.756;2024-02-23T08:18:01;1.60;;;0.85;;
14592;SDS011;7383;52.354;9.756;2024-02-23T08:20:28;1.75;;;0.95;;
14592;SDS011;7383;52.354;9.756;2024-02-23T08:22:54;1.42;;;0.90;;
14592;SDS011;7383;52.354;9.756;2024-02-23T08:25:22;1.95;;;0.70;;
14592;SDS011;7383;52.354;9.756;2024-02-23T08:27:48;2.00;;;0.77;;
14592;SDS011;7383;52.354;9.756;2024-02-23T08:30:15;1.10;;;0.90;;
14592;SDS011;7383;52.354;9.756;2024-02-23T08:32:41;0.90;;;0.40;;
14592;SDS011;7383;52.354;9.756;2024-02-23T08:35:07;1.08;;;0.60;;
14592;SDS011;7383;52.354;9.756;2024-02-23T08:37:34;0.75;;;0.50;;
14592;SDS011;7383;52.354;9.756;2024-02-23T08:40:00;1.38;;;0.77;;
14592;SDS011;7383;52.354;9.756;2024-02-23T08:42:28;1.50;;;0.70;;
14592;SDS011;7383;52.354;9.756;2024-02-23T08:44:55;1.10;;;0.60;;
14592;SDS011;7383;52.354;9.756;2024-02-23T08:47:21;1.98;;;0.80;;
14592;SDS011;7383;52.354;9.756;2024-02-23T08:49:47;0.93;;;0.80;;
14592;SDS011;7383;52.354;9.756;2024-02-23T08:52:18;1.17;;;0.50;;
14592;SDS011;7383;52.354;9.756;2024-02-23T08:54:44;0.88;;;0.57;;
14592;SDS011;7383;52.354;9.756;2024-02-23T08:57:10;0.88;;;0.57;;
14592;SDS011;7383;52.354;9.756;2024-02-23T08:59:38;1.65;;;0.80;;
14592;SDS011;7383;52.354;9.756;2024-02-23T09:02:05;0.85;;;0.60;;
14592;SDS011;7383;52.354;9.756;2024-02-23T09:04:31;0.95;;;0.60;;
14592;SDS011;7383;52.354;9.756;2024-02-23T09:06:58;1.55;;;0.50;;
14592;SDS011;7383;52.354;9.756;2024-02-23T09:09:24;0.70;;;0.60;;
14592;SDS011;7383;52.354;9.756;2024-02-23T09:11:51;1.95;;;0.82;;
14592;SDS011;7383;52.354;9.756;2024-02-23T09:14:17;1.08;;;0.68;;
14592;SDS011;7383;52.354;9.756;2024-02-23T09:16:45;0.70;;;0.50;;
14592;SDS011;7383;52.354;9.756;2024-02-23T09:19:15;1.55;;;0.63;;
14592;SDS011;7383;52.354;9.756;2024-02-23T09:21:41;1.02;;;0.70;;
14592;SDS011;7383;52.354;9.756;2024-02-23T09:24:08;1.30;;;0.73;;
14592;SDS011;7383;52.354;9.756;2024-02-23T09:26:34;0.40;;;0.32;;
14592;SDS011;7383;52.354;9.756;2024-02-23T09:29:00;0.63;;;0.50;;
14592;SDS011;7383;52.354;9.756;2024-02-23T09:31:26;0.57;;;0.50;;
14592;SDS011;7383;52.354;9.756;2024-02-23T09:33:54;1.40;;;0.65;;
14592;SDS011;7383;52.354;9.756;2024-02-23T09:36:21;0.88;;;0.60;;
14592;SDS011;7383;52.354;9.756;2024-02-23T09:38:47;1.10;;;0.40;;
14592;SDS011;7383;52.354;9.756;2024-02-23T09:41:20;0.80;;;0.50;;
14592;SDS011;7383;52.354;9.756;2024-02-23T09:43:46;0.50;;;0.50;;
14592;SDS011;7383;52.354;9.756;2024-02-23T09:46:13;1.05;;;0.55;;
14592;SDS011;7383;52.354;9.756;2024-02-23T09:48:40;0.55;;;0.40;;
14592;SDS011;7383;52.354;9.756;2024-02-23T09:51:09;0.43;;;0.35;;
14592;SDS011;7383;52.354;9.756;2024-02-23T09:53:36;0.70;;;0.40;;
14592;SDS011;7383;52.354;9.756;2024-02-23T09:56:03;0.43;;;0.43;;
14592;SDS011;7383;52.354;9.756;2024-02-23T09:58:30;0.70;;;0.70;;
14592;SDS011;7383;52.354;9.756;2024-02-23T10:00:57;1.10;;;0.70;;
14592;SDS011;7383;52.354;9.756;2024-02-23T10:03:24;1.02;;;0.47;;
14592;SDS011;7383;52.354;9.756;2024-02-23T10:05:52;0.65;;;0.65;;
14592;SDS011;7383;52.354;9.756;2024-02-23T10:08:20;1.08;;;0.60;;
14592;SDS011;7383;52.354;9.756;2024-02-23T10:10:46;0.75;;;0.60;;
14592;SDS011;7383;52.354;9.756;2024-02-23T10:13:17;1.23;;;0.70;;
14592;SDS011;7383;52.354;9.756;2024-02-23T10:15:46;0.77;;;0.50;;
14592;SDS011;7383;52.354;9.756;2024-02-23T10:18:12;1.90;;;0.63;;
14592;SDS011;7383;52.354;9.756;2024-02-23T10:20:39;1.75;;;0.90;;
14592;SDS011;7383;52.354;9.756;2024-02-23T10:23:07;1.75;;;0.60;;
14592;SDS011;7383;52.354;9.756;2024-02-23T10:25:35;1.42;;;0.70;;
14592;SDS011;7383;52.354;9.756;2024-02-23T10:28:03;4.53;;;0.57;;
14592;SDS011;7383;52.354;9.756;2024-02-23T10:30:30;0.65;;;0.50;;
14592;SDS011;7383;52.354;9.756;2024-02-23T10:32:57;1.25;;;0.50;;
14592;SDS011;7383;52.354;9.756;2024-02-23T10:35:23;1.30;;;0.43;;
14592;SDS011;7383;52.354;9.756;2024-02-23T10:37:50;1.35;;;0.70;;
14592;SDS011;7383;52.354;9.756;2024-02-23T10:40:18;1.38;;;0.70;;
14592;SDS011;7383;52.354;9.756;2024-02-23T10:42:47;1.20;;;0.55;;
14592;SDS011;7383;52.354;9.756;2024-02-23T10:45:16;1.23;;;0.50;;
14592;SDS011;7383;52.354;9.756;2024-02-23T10:47:43;1.05;;;0.70;;
14592;SDS011;7383;52.354;9.756;2024-02-23T10:50:10;1.38;;;0.52;;
14592;SDS011;7383;52.354;9.756;2024-02-23T10:52:39;0.82;;;0.60;;
14592;SDS011;7383;52.354;9.756;2024-02-23T10:55:06;0.60;;;0.60;;
14592;SDS011;7383;52.354;9.756;2024-02-23T10:57:34;1.30;;;0.60;;
14592;SDS011;7383;52.354;9.756;2024-02-23T11:00:02;1.25;;;0.70;;
14592;SDS011;7383;52.354;9.756;2024-02-23T11:02:31;1.15;;;0.73;;
14592;SDS011;7383;52.354;9.756;2024-02-23T11:04:57;1.35;;;0.85;;
14592;SDS011;7383;52.354;9.756;2024-02-23T11:07:25;0.85;;;0.50;;
14592;SDS011;7383;52.354;9.756;2024-02-23T11:09:53;1.00;;;0.50;;
14592;SDS011;7383;52.354;9.756;2024-02-23T11:12:22;1.33;;;0.60;;
14592;SDS011;7383;52.354;9.756;2024-02-23T11:14:50;1.15;;;0.70;;
14592;SDS011;7383;52.354;9.756;2024-02-23T11:17:18;1.38;;;0.77;;
14592;SDS011;7383;52.354;9.756;2024-02-23T11:19:46;0.93;;;0.60;;
14592;SDS011;7383;52.354;9.756;2024-02-23T11:22:13;1.23;;;0.80;;
14592;SDS011;7383;52.354;9.756;2024-02-23T11:24:42;1.05;;;0.65;;
14592;SDS011;7383;52.354;9.756;2024-02-23T11:27:13;1.05;;;0.65;;
14592;SDS011;7383;52.354;9.756;2024-02-23T11:29:42;1.80;;;0.68;;
14592;SDS011;7383;52.354;9.756;2024-02-23T11:32:12;0.80;;;0.70;;
14592;SDS011;7383;52.354;9.756;2024-02-23T11:34:40;1.15;;;0.73;;
14592;SDS011;7383;52.354;9.756;2024-02-23T11:37:07;1.05;;;0.57;;
14592;SDS011;7383;52.354;9.756;2024-02-23T11:39:35;0.93;;;0.52;;
14592;SDS011;7383;52.354;9.756;2024-02-23T11:42:04;1.60;;;0.80;;
14592;SDS011;7383;52.354;9.756;2024-02-23T11:44:30;1.27;;;0.90;;
14592;SDS011;7383;52.354;9.756;2024-02-23T11:46:58;1.27;;;0.73;;
14592;SDS011;7383;52.354;9.756;2024-02-23T11:49:27;1.00;;;0.73;;
14592;SDS011;7383;52.354;9.756;2024-02-23T11:51:55;1.25;;;0.70;;
14592;SDS011;7383;52.354;9.756;2024-02-23T11:54:21;0.93;;;0.60;;
14592;SDS011;7383;52.354;9.756;2024-02-23T11:56:48;0.75;;;0.60;;
14592;SDS011;7383;52.354;9.756;2024-02-23T11:59:17;1.00;;;0.47;;
14592;SDS011;7383;52.354;9.756;2024-02-23T12:01:43;1.15;;;0.73;;
14592;SDS011;7383;52.354;9.756;2024-02-23T12:04:12;2.00;;;0.85;;
14592;SDS011;7383;52.354;9.756;2024-02-23T12:06:39;2.17;;;0.47;;
14592;SDS011;7383;52.354;9.756;2024-02-23T12:09:07;1.65;;;0.60;;
14592;SDS011;7383;52.354;9.756;2024-02-23T12:11:34;0.63;;;0.63;;
14592;SDS011;7383;52.354;9.756;2024-02-23T12:14:01;1.38;;;0.93;;
14592;SDS011;7383;52.354;9.756;2024-02-23T12:16:32;0.75;;;0.40;;
14592;SDS011;7383;52.354;9.756;2024-02-23T12:19:00;0.88;;;0.50;;
14592;SDS011;7383;52.354;9.756;2024-02-23T12:21:27;1.45;;;0.73;;
14592;SDS011;7383;52.354;9.756;2024-02-23T12:23:53;1.73;;;0.80;;
14592;SDS011;7383;52.354;9.756;2024-02-23T12:26:21;0.77;;;0.63;;
14592;SDS011;7383;52.354;9.756;2024-02-23T12:28:47;0.40;;;0.40;;
14592;SDS011;7383;52.354;9.756;2024-02-23T12:31:14;1.25;;;0.65;;
14592;SDS011;7383;52.354;9.756;2024-02-23T12:33:40;1.20;;;0.68;;
14592;SDS011;7383;52.354;9.756;2024-02-23T12:36:07;1.67;;;0.93;;
14592;SDS011;7383;52.354;9.756;2024-02-23T12:38:34;0.88;;;0.65;;
14592;SDS011;7383;52.354;9.756;2024-02-23T12:41:01;0.82;;;0.50;;
14592;SDS011;7383;52.354;9.756;2024-02-23T12:43:30;1.00;;;0.70;;
14592;SDS011;7383;52.354;9.756;2024-02-23T12:45:57;1.83;;;0.52;;
14592;SDS011;7383;52.354;9.756;2024-02-23T12:48:23;1.08;;;0.73;;
14592;SDS011;7383;52.354;9.756;2024-02-23T12:50:50;0.73;;;0.60;;
14592;SDS011;7383;52.354;9.756;2024-02-23T12:53:30;0.73;;;0.50;;
14592;SDS011;7383;52.354;9.756;2024-02-23T12:55:56;0.60;;;0.60;;
14592;SDS011;7383;52.354;9.756;2024-02-23T12:58:23;0.85;;;0.60;;
14592;SDS011;7383;52.354;9.756;2024-02-23T13:00:50;1.73;;;0.60;;
14592;SDS011;7383;52.354;9.756;2024-02-23T13:03:17;0.65;;;0.52;;
14592;SDS011;7383;52.354;9.756;2024-02-23T13:05:43;0.98;;;0.70;;
14592;SDS011;7383;52.354;9.756;2024-02-23T13:08:09;0.75;;;0.50;;
14592;SDS011;7383;52.354;9.756;2024-02-23T13:10:36;0.50;;;0.40;;
14592;SDS011;7383;52.354;9.756;2024-02-23T13:13:02;1.02;;;0.45;;
14592;SDS011;7383;52.354;9.756;2024-02-23T13:15:29;0.95;;;0.50;;
14592;SDS011;7383;52.354;9.756;2024-02-23T13:17:56;1.02;;;0.57;;
14592;SDS011;7383;52.354;9.756;2024-02-23T13:20:23;1.27;;;0.70;;
14592;SDS011;7383;52.354;9.756;2024-02-23T13:22:49;1.27;;;0.65;;
14592;SDS011;7383;52.354;9.756;2024-02-23T13:25:16;1.83;;;0.57;;
14592;SDS011;7383;52.354;9.756;2024-02-23T13:27:42;1.13;;;0.50;;
14592;SDS011;7383;52.354;9.756;2024-02-23T13:30:08;1.13;;;0.60;;
14592;SDS011;7383;52.354;9.756;2024-02-23T13:32:36;0.98;;;0.43;;
14592;SDS011;7383;52.354;9.756;2024-02-23T13:35:04;0.90;;;0.70;;
14592;SDS011;7383;52.354;9.756;2024-02-23T13:37:31;1.33;;;0.70;;
14592;SDS011;7383;52.354;9.756;2024-02-23T13:39:58;1.25;;;0.70;;
14592;SDS011;7383;52.354;9.756;2024-02-23T13:42:24;0.60;;;0.60;;
14592;SDS011;7383;52.354;9.756;2024-02-23T13:44:50;1.15;;;0.60;;
14592;SDS011;7383;52.354;9.756;2024-02-23T13:47:17;0.77;;;0.57;;
14592;SDS011;7383;52.354;9.756;2024-02-23T13:49:49;1.33;;;0.70;;
14592;SDS011;7383;52.354;9.756;2024-02-23T13:52:17;1.02;;;0.70;;
14592;SDS011;7383;52.354;9.756;2024-02-23T13:54:44;1.08;;;0.98;;
14592;SDS011;7383;52.354;9.756;2024-02-23T13:57:11;0.68;;;0.68;;
14592;SDS011;7383;52.354;9.756;2024-02-23T13:59:37;1.30;;;0.85;;
14592;SDS011;7383;52.354;9.756;2024-02-23T14:02:03;0.63;;;0.63;;
14592;SDS011;7383;52.354;9.756;2024-02-23T14:04:30;0.60;;;0.60;;
14592;SDS011;7383;52.354;9.756;2024-02-23T14:06:56;1.02;;;0.50;;
14592;SDS011;7383;52.354;9.756;2024-02-23T14:09:24;1.50;;;1.00;;
14592;SDS011;7383;52.354;9.756;2024-02-23T14:11:50;0.95;;;0.55;;
14592;SDS011;7383;52.354;9.756;2024-02-23T14:14:17;1.08;;;0.50;;
14592;SDS011;7383;52.354;9.756;2024-02-23T14:16:43;0.77;;;0.60;;
14592;SDS011;7383;52.354;9.756;2024-02-23T14:19:10;0.45;;;0.32;;
14592;SDS011;7383;52.354;9.756;2024-02-23T14:21:36;0.75;;;0.50;;
14592;SDS011;7383;52.354;9.756;2024-02-23T14:24:03;0.93;;;0.70;;
14592;SDS011;7383;52.354;9.756;2024-02-23T14:26:31;0.50;;;0.50;;
14592;SDS011;7383;52.354;9.756;2024-02-23T14:28:58;1.60;;;0.73;;
14592;SDS011;7383;52.354;9.756;2024-02-23T14:31:24;1.60;;;0.63;;
14592;SDS011;7383;52.354;9.756;2024-02-23T14:33:51;0.65;;;0.50;;
14592;SDS011;7383;52.354;9.756;2024-02-23T14:36:18;0.70;;;0.70;;
14592;SDS011;7383;52.354;9.756;2024-02-23T14:38:44;0.80;;;0.65;;
14592;SDS011;7383;52.354;9.756;2024-02-23T14:41:11;0.68;;;0.60;;
14592;SDS011;7383;52.354;9.756;2024-02-23T14:43:38;2.05;;;0.60;;
14592;SDS011;7383;52.354;9.756;2024-02-23T14:46:05;0.77;;;0.70;;
14592;SDS011;7383;52.354;9.756;2024-02-23T14:48:35;1.67;;;0.60;;
14592;SDS011;7383;52.354;9.756;2024-02-23T14:51:02;0.60;;;0.50;;
14592;SDS011;7383;52.354;9.756;2024-02-23T14:53:29;0.63;;;0.63;;
14592;SDS011;7383;52.354;9.756;2024-02-23T14:55:56;0.80;;;0.60;;
14592;SDS011;7383;52.354;9.756;2024-02-23T14:58:22;0.88;;;0.70;;